sensor_id;sensor_type;location;lat;lon;timestamp;P1;durP1;ratioP1;P2;durP2;ratioP2
11111;SDS011;5609;49.466;8.468;2024-03-17T00:00:04;5.20;;;4.70;;
11111;SDS011;5609;49.466;8.468;2024-03-17T00:02:31;5.33;;;4.67;;
11111;SDS011;5609;49.466;8.468;2024-03-17T00:04:59;5.03;;;4.53;;
11111;SDS011;5609;49.466;8.468;2024-03-17T00:07:24;5.63;;;4.30;;
11111;SDS011;5609;49.466;8.468;2024-03-17T00:09:51;4.77;;;4.33;;
11111;SDS011;5609;49.466;8.468;2024-03-17T00:12:17;5.10;;;4.60;;
11111;SDS011;5609;49.466;8.468;2024-03-17T00:14:43;6.87;;;5.00;;
11111;SDS011;5609;49.466;8.468;2024-03-17T00:17:10;5.17;;;4.47;;
11111;SDS011;5609;49.466;8.468;2024-03-17T00:19:37;5.13;;;4.63;;
11111;SDS011;5609;49.466;8.468;2024-03-17T00:22:04;5.20;;;4.70;;
11111;SDS011;5609;49.466;8.468;2024-03-17T00:24:30;6.77;;;5.50;;
11111;SDS011;5609;49.466;8.468;2024-03-17T00:26:59;5.93;;;5.33;;
11111;SDS011;5609;49.466;8.468;2024-03-17T00:29:26;7.33;;;5.10;;
11111;SDS011;5609;49.466;8.468;2024-03-17T00:31:53;6.33;;;5.50;;
11111;SDS011;5609;49.466;8.468;2024-03-17T00:34:19;5.90;;;5.30;;
11111;SDS011;5609;49.466;8.468;2024-03-17T00:36:45;6.17;;;5.67;;
11111;SDS011;5609;49.466;8.468;2024-03-17T00:39:13;6.23;;;5.37;;
11111;SDS011;5609;49.466;8.468;2024-03-17T00:41:39;5.57;;;4.97;;
11111;SDS011;5609;49.466;8.468;2024-03-17T00:44:05;6.37;;;5.27;;
11111;SDS011;5609;49.466;8.468;2024-03-17T00:46:31;6.20;;;5.60;;
11111;SDS011;5609;49.466;8.468;2024-03-17T00:48:58;5.90;;;5.37;;
11111;SDS011;5609;49.466;8.468;2024-03-17T00:51:25;6.70;;;6.10;;
11111;SDS011;5609;49.466;8.468;2024-03-17T00:53:52;6.53;;;5.90;;
11111;SDS011;5609;49.466;8.468;2024-03-17T00:56:19;6.73;;;6.13;;
11111;SDS011;5609;49.466;8.468;2024-03-17T00:58:46;7.00;;;6.20;;
11111;SDS011;5609;49.466;8.468;2024-03-17T01:01:12;7.13;;;6.17;;
11111;SDS011;5609;49.466;8.468;2024-03-17T01:03:38;6.90;;;6.00;;
11111;SDS011;5609;49.466;8.468;2024-03-17T01:06:04;6.97;;;5.80;;
11111;SDS011;5609;49.466;8.468;2024-03-17T01:08:31;6.43;;;5.83;;
11111;SDS011;5609;49.466;8.468;2024-03-17T01:10:57;6.40;;;5.73;;
11111;SDS011;5609;49.466;8.468;2024-03-17T01:13:25;6.30;;;5.70;;
11111;SDS011;5609;49.466;8.468;2024-03-17T01:18:18;7.27;;;6.10;;
11111;SDS011;5609;49.466;8.468;2024-03-17T01:20:45;6.87;;;5.90;;
11111;SDS011;5609;49.466;8.468;2024-03-17T01:23:11;7.83;;;6.30;;
11111;SDS011;5609;49.466;8.468;2024-03-17T01:25:38;6.77;;;6.13;;
11111;SDS011;5609;49.466;8.468;2024-03-17T01:28:05;7.90;;;6.03;;
11111;SDS011;5609;49.466;8.468;2024-03-17T01:30:33;6.60;;;5.87;;
11111;SDS011;5609;49.466;8.468;2024-03-17T01:32:59;6.33;;;5.70;;
11111;SDS011;5609;49.466;8.468;2024-03-17T01:35:26;7.20;;;6.50;;
11111;SDS011;5609;49.466;8.468;2024-03-17T01:37:52;6.97;;;6.27;;
11111;SDS011;5609;49.466;8.468;2024-03-17T01:40:19;6.73;;;5.83;;
11111;SDS011;5609;49.466;8.468;2024-03-17T01:42:45;6.50;;;5.90;;
11111;SDS011;5609;49.466;8.468;2024-03-17T01:48:02;6.70;;;6.00;;
11111;SDS011;5609;49.466;8.468;2024-03-17T01:50:30;7.10;;;5.73;;
11111;SDS011;5609;49.466;8.468;2024-03-17T01:53:00;6.53;;;5.77;;
11111;SDS011;5609;49.466;8.468;2024-03-17T01:55:29;7.33;;;6.53;;
11111;SDS011;5609;49.466;8.468;2024-03-17T01:57:57;7.33;;;6.63;;
11111;SDS011;5609;49.466;8.468;2024-03-17T02:00:23;6.60;;;5.90;;
11111;SDS011;5609;49.466;8.468;2024-03-17T02:02:51;7.57;;;6.50;;
11111;SDS011;5609;49.466;8.468;2024-03-17T02:05:17;6.20;;;5.60;;
11111;SDS011;5609;49.466;8.468;2024-03-17T02:07:43;6.93;;;6.23;;
11111;SDS011;5609;49.466;8.468;2024-03-17T02:10:09;7.50;;;6.80;;
11111;SDS011;5609;49.466;8.468;2024-03-17T02:12:37;7.57;;;6.77;;
11111;SDS011;5609;49.466;8.468;2024-03-17T02:15:03;6.77;;;6.17;;
11111;SDS011;5609;49.466;8.468;2024-03-17T02:17:31;7.50;;;6.73;;
11111;SDS011;5609;49.466;8.468;2024-03-17T02:19:58;7.73;;;6.60;;
11111;SDS011;5609;49.466;8.468;2024-03-17T02:22:26;7.60;;;6.43;;
11111;SDS011;5609;49.466;8.468;2024-03-17T02:24:53;6.90;;;6.30;;
11111;SDS011;5609;49.466;8.468;2024-03-17T02:27:19;7.23;;;6.53;;
11111;SDS011;5609;49.466;8.468;2024-03-17T02:29:45;7.53;;;6.83;;
11111;SDS011;5609;49.466;8.468;2024-03-17T02:32:11;7.20;;;6.50;;
11111;SDS011;5609;49.466;8.468;2024-03-17T02:34:37;7.83;;;7.03;;
11111;SDS011;5609;49.466;8.468;2024-03-17T02:37:06;6.60;;;6.00;;
11111;SDS011;5609;49.466;8.468;2024-03-17T02:39:34;8.47;;;6.67;;
11111;SDS011;5609;49.466;8.468;2024-03-17T02:42:01;7.57;;;6.87;;
11111;SDS011;5609;49.466;8.468;2024-03-17T02:44:29;8.53;;;6.80;;
11111;SDS011;5609;49.466;8.468;2024-03-17T02:46:56;7.13;;;6.37;;
11111;SDS011;5609;49.466;8.468;2024-03-17T02:49:23;7.60;;;6.50;;
11111;SDS011;5609;49.466;8.468;2024-03-17T02:51:51;7.70;;;6.90;;
11111;SDS011;5609;49.466;8.468;2024-03-17T02:54:19;7.33;;;6.63;;
11111;SDS011;5609;49.466;8.468;2024-03-17T02:56:47;6.90;;;6.17;;
11111;SDS011;5609;49.466;8.468;2024-03-17T02:59:13;8.57;;;7.00;;
11111;SDS011;5609;49.466;8.468;2024-03-17T03:01:40;7.63;;;6.93;;
11111;SDS011;5609;49.466;8.468;2024-03-17T03:04:07;7.27;;;6.60;;
11111;SDS011;5609;49.466;8.468;2024-03-17T03:06:34;9.10;;;7.00;;
11111;SDS011;5609;49.466;8.468;2024-03-17T03:09:00;7.77;;;7.07;;
11111;SDS011;5609;49.466;8.468;2024-03-17T03:11:27;7.47;;;6.67;;
11111;SDS011;5609;49.466;8.468;2024-03-17T03:13:55;7.67;;;6.90;;
11111;SDS011;5609;49.466;8.468;2024-03-17T03:16:22;7.60;;;6.70;;
11111;SDS011;5609;49.466;8.468;2024-03-17T03:18:50;7.67;;;6.87;;
11111;SDS011;5609;49.466;8.468;2024-03-17T03:21:17;7.67;;;6.97;;
11111;SDS011;5609;49.466;8.468;2024-03-17T03:23:44;8.77;;;6.97;;
11111;SDS011;5609;49.466;8.468;2024-03-17T03:26:11;7.20;;;6.57;;
11111;SDS011;5609;49.466;8.468;2024-03-17T03:28:38;8.30;;;7.50;;
11111;SDS011;5609;49.466;8.468;2024-03-17T03:31:06;7.60;;;6.80;;
11111;SDS011;5609;49.466;8.468;2024-03-17T03:33:38;8.03;;;7.23;;
11111;SDS011;5609;49.466;8.468;2024-03-17T03:36:09;8.40;;;7.53;;
11111;SDS011;5609;49.466;8.468;2024-03-17T03:38:36;7.80;;;7.00;;
11111;SDS011;5609;49.466;8.468;2024-03-17T03:41:07;8.20;;;7.40;;
11111;SDS011;5609;49.466;8.468;2024-03-17T03:43:34;8.23;;;7.27;;
11111;SDS011;5609;49.466;8.468;2024-03-17T03:46:01;8.23;;;7.03;;
11111;SDS011;5609;49.466;8.468;2024-03-17T03:48:30;8.00;;;6.80;;
11111;SDS011;5609;49.466;8.468;2024-03-17T03:50:57;8.40;;;7.13;;
11111;SDS011;5609;49.466;8.468;2024-03-17T03:53:23;10.70;;;7.60;;
11111;SDS011;5609;49.466;8.468;2024-03-17T03:55:51;9.80;;;7.93;;
11111;SDS011;5609;49.466;8.468;2024-03-17T03:58:17;8.73;;;7.83;;
11111;SDS011;5609;49.466;8.468;2024-03-17T04:00:45;8.93;;;8.00;;
11111;SDS011;5609;49.466;8.468;2024-03-17T04:03:12;9.37;;;8.03;;
11111;SDS011;5609;49.466;8.468;2024-03-17T04:05:40;11.03;;;7.87;;
11111;SDS011;5609;49.466;8.468;2024-03-17T04:08:07;10.17;;;7.87;;
11111;SDS011;5609;49.466;8.468;2024-03-17T04:10:33;7.87;;;7.13;;
11111;SDS011;5609;49.466;8.468;2024-03-17T04:13:00;8.50;;;7.77;;
11111;SDS011;5609;49.466;8.468;2024-03-17T04:15:27;9.13;;;7.80;;
11111;SDS011;5609;49.466;8.468;2024-03-17T04:17:54;9.17;;;8.10;;
11111;SDS011;5609;49.466;8.468;2024-03-17T04:20:21;8.20;;;7.40;;
11111;SDS011;5609;49.466;8.468;2024-03-17T04:22:49;8.23;;;7.43;;
11111;SDS011;5609;49.466;8.468;2024-03-17T04:25:15;9.10;;;7.63;;
11111;SDS011;5609;49.466;8.468;2024-03-17T04:27:43;9.13;;;8.07;;
11111;SDS011;5609;49.466;8.468;2024-03-17T04:30:10;8.40;;;7.60;;
11111;SDS011;5609;49.466;8.468;2024-03-17T04:32:36;9.13;;;7.93;;
11111;SDS011;5609;49.466;8.468;2024-03-17T04:35:03;9.80;;;8.73;;
11111;SDS011;5609;49.466;8.468;2024-03-17T04:37:32;9.90;;;8.70;;
11111;SDS011;5609;49.466;8.468;2024-03-17T04:40:05;10.07;;;8.90;;
11111;SDS011;5609;49.466;8.468;2024-03-17T04:42:35;10.17;;;8.77;;
11111;SDS011;5609;49.466;8.468;2024-03-17T04:45:04;9.23;;;8.33;;
11111;SDS011;5609;49.466;8.468;2024-03-17T04:47:32;8.63;;;7.73;;
11111;SDS011;5609;49.466;8.468;2024-03-17T04:49:59;9.57;;;7.53;;
11111;SDS011;5609;49.466;8.468;2024-03-17T04:52:25;8.23;;;7.53;;
11111;SDS011;5609;49.466;8.468;2024-03-17T04:54:52;9.53;;;7.60;;
11111;SDS011;5609;49.466;8.468;2024-03-17T04:57:20;8.63;;;7.77;;
11111;SDS011;5609;49.466;8.468;2024-03-17T04:59:47;9.07;;;8.07;;
11111;SDS011;5609;49.466;8.468;2024-03-17T05:02:13;8.60;;;7.80;;
11111;SDS011;5609;49.466;8.468;2024-03-17T05:04:40;8.63;;;7.57;;
11111;SDS011;5609;49.466;8.468;2024-03-17T05:07:07;8.30;;;7.30;;
11111;SDS011;5609;49.466;8.468;2024-03-17T05:09:34;9.60;;;8.27;;
11111;SDS011;5609;49.466;8.468;2024-03-17T05:12:01;7.80;;;7.10;;
11111;SDS011;5609;49.466;8.468;2024-03-17T05:14:29;7.93;;;7.13;;
11111;SDS011;5609;49.466;8.468;2024-03-17T05:16:55;8.63;;;7.77;;
11111;SDS011;5609;49.466;8.468;2024-03-17T05:19:22;8.33;;;7.47;;
11111;SDS011;5609;49.466;8.468;2024-03-17T05:21:49;9.73;;;7.43;;
11111;SDS011;5609;49.466;8.468;2024-03-17T05:24:16;8.00;;;7.20;;
11111;SDS011;5609;49.466;8.468;2024-03-17T05:26:42;8.80;;;7.90;;
11111;SDS011;5609;49.466;8.468;2024-03-17T05:29:10;9.70;;;8.00;;
11111;SDS011;5609;49.466;8.468;2024-03-17T05:31:38;8.60;;;7.80;;
11111;SDS011;5609;49.466;8.468;2024-03-17T05:34:05;8.53;;;7.73;;
11111;SDS011;5609;49.466;8.468;2024-03-17T05:36:32;8.57;;;7.77;;
11111;SDS011;5609;49.466;8.468;2024-03-17T05:38:58;10.87;;;8.23;;
11111;SDS011;5609;49.466;8.468;2024-03-17T05:41:25;8.27;;;7.47;;
11111;SDS011;5609;49.466;8.468;2024-03-17T05:43:53;8.43;;;7.63;;
11111;SDS011;5609;49.466;8.468;2024-03-17T05:46:23;10.20;;;7.90;;
11111;SDS011;5609;49.466;8.468;2024-03-17T05:48:52;8.60;;;7.60;;
11111;SDS011;5609;49.466;8.468;2024-03-17T05:51:18;8.20;;;7.40;;
11111;SDS011;5609;49.466;8.468;2024-03-17T05:53:45;8.57;;;7.60;;
11111;SDS011;5609;49.466;8.468;2024-03-17T05:56:12;9.27;;;7.53;;
11111;SDS011;5609;49.466;8.468;2024-03-17T05:58:40;8.77;;;7.87;;
11111;SDS011;5609;49.466;8.468;2024-03-17T06:01:07;9.40;;;7.77;;
11111;SDS011;5609;49.466;8.468;2024-03-17T06:03:36;8.93;;;7.30;;
11111;SDS011;5609;49.466;8.468;2024-03-17T06:06:04;8.53;;;7.83;;
11111;SDS011;5609;49.466;8.468;2024-03-17T06:08:34;8.53;;;7.40;;
11111;SDS011;5609;49.466;8.468;2024-03-17T06:11:01;7.60;;;6.70;;
11111;SDS011;5609;49.466;8.468;2024-03-17T06:13:28;8.10;;;7.20;;
11111;SDS011;5609;49.466;8.468;2024-03-17T06:15:54;7.73;;;7.00;;
11111;SDS011;5609;49.466;8.468;2024-03-17T06:18:25;9.10;;;7.30;;
11111;SDS011;5609;49.466;8.468;2024-03-17T06:20:53;8.43;;;7.63;;
11111;SDS011;5609;49.466;8.468;2024-03-17T06:23:26;8.13;;;7.33;;
11111;SDS011;5609;49.466;8.468;2024-03-17T06:25:53;8.13;;;7.33;;
11111;SDS011;5609;49.466;8.468;2024-03-17T06:28:20;8.87;;;7.93;;
11111;SDS011;5609;49.466;8.468;2024-03-17T06:30:54;8.30;;;7.50;;
11111;SDS011;5609;49.466;8.468;2024-03-17T06:33:21;7.67;;;7.00;;
11111;SDS011;5609;49.466;8.468;2024-03-17T06:35:48;10.07;;;7.30;;
11111;SDS011;5609;49.466;8.468;2024-03-17T06:38:14;9.23;;;8.30;;
11111;SDS011;5609;49.466;8.468;2024-03-17T06:40:47;8.87;;;7.97;;
11111;SDS011;5609;49.466;8.468;2024-03-17T06:43:15;9.27;;;7.93;;
11111;SDS011;5609;49.466;8.468;2024-03-17T06:45:41;8.80;;;7.90;;
11111;SDS011;5609;49.466;8.468;2024-03-17T06:48:08;9.50;;;8.60;;
11111;SDS011;5609;49.466;8.468;2024-03-17T06:50:35;9.00;;;8.10;;
11111;SDS011;5609;49.466;8.468;2024-03-17T06:53:05;9.27;;;8.37;;
11111;SDS011;5609;49.466;8.468;2024-03-17T06:55:33;9.30;;;8.40;;
11111;SDS011;5609;49.466;8.468;2024-03-17T06:58:01;9.70;;;8.67;;
11111;SDS011;5609;49.466;8.468;2024-03-17T07:00:28;9.67;;;8.87;;
11111;SDS011;5609;49.466;8.468;2024-03-17T07:02:55;9.70;;;8.67;;
11111;SDS011;5609;49.466;8.468;2024-03-17T07:05:22;9.73;;;8.73;;
11111;SDS011;5609;49.466;8.468;2024-03-17T07:07:49;9.10;;;8.20;;
11111;SDS011;5609;49.466;8.468;2024-03-17T07:10:16;8.63;;;7.83;;
11111;SDS011;5609;49.466;8.468;2024-03-17T07:12:43;9.30;;;8.40;;
11111;SDS011;5609;49.466;8.468;2024-03-17T07:15:11;9.30;;;8.40;;
11111;SDS011;5609;49.466;8.468;2024-03-17T07:17:38;9.37;;;8.47;;
11111;SDS011;5609;49.466;8.468;2024-03-17T07:20:05;10.70;;;9.70;;
11111;SDS011;5609;49.466;8.468;2024-03-17T07:22:33;11.17;;;9.97;;
11111;SDS011;5609;49.466;8.468;2024-03-17T07:25:00;10.83;;;9.77;;
11111;SDS011;5609;49.466;8.468;2024-03-17T07:27:27;11.33;;;10.13;;
11111;SDS011;5609;49.466;8.468;2024-03-17T07:29:53;11.47;;;10.37;;
11111;SDS011;5609;49.466;8.468;2024-03-17T07:32:22;11.73;;;10.53;;
11111;SDS011;5609;49.466;8.468;2024-03-17T07:34:49;11.40;;;10.30;;
11111;SDS011;5609;49.466;8.468;2024-03-17T07:37:16;12.57;;;11.37;;
11111;SDS011;5609;49.466;8.468;2024-03-17T07:39:42;12.00;;;10.90;;
11111;SDS011;5609;49.466;8.468;2024-03-17T07:42:09;11.97;;;10.63;;
11111;SDS011;5609;49.466;8.468;2024-03-17T07:44:36;11.97;;;10.83;;
11111;SDS011;5609;49.466;8.468;2024-03-17T07:47:03;11.67;;;10.47;;
11111;SDS011;5609;49.466;8.468;2024-03-17T07:49:31;12.33;;;10.70;;
11111;SDS011;5609;49.466;8.468;2024-03-17T07:51:58;12.00;;;10.87;;
11111;SDS011;5609;49.466;8.468;2024-03-17T07:54:25;11.97;;;10.77;;
11111;SDS011;5609;49.466;8.468;2024-03-17T07:56:52;11.40;;;10.30;;
11111;SDS011;5609;49.466;8.468;2024-03-17T07:59:19;12.80;;;10.97;;
11111;SDS011;5609;49.466;8.468;2024-03-17T08:01:46;10.73;;;9.63;;
11111;SDS011;5609;49.466;8.468;2024-03-17T08:04:13;11.17;;;10.07;;
11111;SDS011;5609;49.466;8.468;2024-03-17T08:06:41;10.23;;;9.27;;
11111;SDS011;5609;49.466;8.468;2024-03-17T08:09:09;10.83;;;9.43;;
11111;SDS011;5609;49.466;8.468;2024-03-17T08:11:37;10.33;;;9.23;;
11111;SDS011;5609;49.466;8.468;2024-03-17T08:14:03;10.43;;;9.43;;
11111;SDS011;5609;49.466;8.468;2024-03-17T08:16:30;9.80;;;8.70;;
11111;SDS011;5609;49.466;8.468;2024-03-17T08:18:57;8.77;;;7.90;;
11111;SDS011;5609;49.466;8.468;2024-03-17T08:21:24;8.90;;;8.10;;
11111;SDS011;5609;49.466;8.468;2024-03-17T08:23:54;8.10;;;7.30;;
11111;SDS011;5609;49.466;8.468;2024-03-17T08:26:21;7.23;;;6.60;;
11111;SDS011;5609;49.466;8.468;2024-03-17T08:28:48;8.03;;;7.23;;
11111;SDS011;5609;49.466;8.468;2024-03-17T08:31:15;7.90;;;6.67;;
11111;SDS011;5609;49.466;8.468;2024-03-17T08:33:41;6.37;;;5.73;;
11111;SDS011;5609;49.466;8.468;2024-03-17T08:36:08;6.80;;;6.20;;
11111;SDS011;5609;49.466;8.468;2024-03-17T08:38:36;6.37;;;5.73;;
11111;SDS011;5609;49.466;8.468;2024-03-17T08:41:05;6.37;;;5.77;;
11111;SDS011;5609;49.466;8.468;2024-03-17T08:43:32;7.77;;;6.33;;
11111;SDS011;5609;49.466;8.468;2024-03-17T08:46:00;6.47;;;5.83;;
11111;SDS011;5609;49.466;8.468;2024-03-17T08:48:28;6.17;;;5.57;;
11111;SDS011;5609;49.466;8.468;2024-03-17T08:50:56;6.47;;;5.53;;
11111;SDS011;5609;49.466;8.468;2024-03-17T08:53:23;6.67;;;6.07;;
11111;SDS011;5609;49.466;8.468;2024-03-17T08:55:51;6.73;;;6.13;;
11111;SDS011;5609;49.466;8.468;2024-03-17T08:58:19;6.43;;;5.90;;
11111;SDS011;5609;49.466;8.468;2024-03-17T09:00:47;6.93;;;6.23;;
11111;SDS011;5609;49.466;8.468;2024-03-17T09:03:14;6.60;;;6.00;;
11111;SDS011;5609;49.466;8.468;2024-03-17T09:05:42;6.63;;;6.00;;
11111;SDS011;5609;49.466;8.468;2024-03-17T09:08:10;7.03;;;6.03;;
11111;SDS011;5609;49.466;8.468;2024-03-17T09:10:41;6.30;;;5.70;;
11111;SDS011;5609;49.466;8.468;2024-03-17T09:13:09;7.57;;;5.70;;
11111;SDS011;5609;49.466;8.468;2024-03-17T09:15:40;7.00;;;6.30;;
11111;SDS011;5609;49.466;8.468;2024-03-17T09:18:07;6.40;;;5.73;;
11111;SDS011;5609;49.466;8.468;2024-03-17T09:20:34;7.20;;;5.67;;
11111;SDS011;5609;49.466;8.468;2024-03-17T09:23:01;7.37;;;6.20;;
11111;SDS011;5609;49.466;8.468;2024-03-17T09:25:28;7.00;;;6.30;;
11111;SDS011;5609;49.466;8.468;2024-03-17T09:27:55;6.63;;;5.90;;
11111;SDS011;5609;49.466;8.468;2024-03-17T09:30:23;6.40;;;5.80;;
11111;SDS011;5609;49.466;8.468;2024-03-17T09:32:51;6.73;;;5.90;;
11111;SDS011;5609;49.466;8.468;2024-03-17T09:35:18;6.47;;;5.63;;
11111;SDS011;5609;49.466;8.468;2024-03-17T09:37:45;6.30;;;5.70;;
11111;SDS011;5609;49.466;8.468;2024-03-17T09:40:13;7.07;;;5.30;;
11111;SDS011;5609;49.466;8.468;2024-03-17T09:42:41;6.33;;;5.60;;
11111;SDS011;5609;49.466;8.468;2024-03-17T09:45:08;7.43;;;5.40;;
11111;SDS011;5609;49.466;8.468;2024-03-17T09:47:36;6.10;;;5.50;;
11111;SDS011;5609;49.466;8.468;2024-03-17T09:50:06;6.10;;;5.20;;
11111;SDS011;5609;49.466;8.468;2024-03-17T09:52:39;6.07;;;5.47;;
11111;SDS011;5609;49.466;8.468;2024-03-17T09:55:09;6.07;;;5.40;;
11111;SDS011;5609;49.466;8.468;2024-03-17T09:57:36;5.60;;;5.10;;
11111;SDS011;5609;49.466;8.468;2024-03-17T10:00:04;6.00;;;5.37;;
11111;SDS011;5609;49.466;8.468;2024-03-17T10:02:41;6.57;;;5.87;;
11111;SDS011;5609;49.466;8.468;2024-03-17T10:05:14;5.90;;;5.27;;
11111;SDS011;5609;49.466;8.468;2024-03-17T10:07:44;6.40;;;5.43;;
11111;SDS011;5609;49.466;8.468;2024-03-17T10:10:11;7.37;;;5.70;;
11111;SDS011;5609;49.466;8.468;2024-03-17T10:12:38;6.67;;;5.93;;
11111;SDS011;5609;49.466;8.468;2024-03-17T10:15:08;6.27;;;5.67;;
11111;SDS011;5609;49.466;8.468;2024-03-17T10:17:37;6.67;;;5.90;;
11111;SDS011;5609;49.466;8.468;2024-03-17T10:20:11;6.67;;;5.67;;
11111;SDS011;5609;49.466;8.468;2024-03-17T10:22:41;7.00;;;5.40;;
11111;SDS011;5609;49.466;8.468;2024-03-17T10:25:24;6.20;;;5.60;;
11111;SDS011;5609;49.466;8.468;2024-03-17T10:27:51;6.57;;;5.57;;
11111;SDS011;5609;49.466;8.468;2024-03-17T10:30:19;6.80;;;6.20;;
11111;SDS011;5609;49.466;8.468;2024-03-17T10:32:51;7.00;;;5.93;;
11111;SDS011;5609;49.466;8.468;2024-03-17T10:35:26;6.90;;;6.20;;
11111;SDS011;5609;49.466;8.468;2024-03-17T10:37:55;8.03;;;6.20;;
11111;SDS011;5609;49.466;8.468;2024-03-17T10:40:22;6.63;;;5.73;;
11111;SDS011;5609;49.466;8.468;2024-03-17T10:42:50;6.43;;;5.50;;
11111;SDS011;5609;49.466;8.468;2024-03-17T10:45:17;7.00;;;5.73;;
11111;SDS011;5609;49.466;8.468;2024-03-17T10:47:46;6.30;;;5.50;;
11111;SDS011;5609;49.466;8.468;2024-03-17T10:50:16;6.70;;;5.93;;
11111;SDS011;5609;49.466;8.468;2024-03-17T10:52:44;6.23;;;5.63;;
11111;SDS011;5609;49.466;8.468;2024-03-17T10:55:20;6.43;;;5.60;;
11111;SDS011;5609;49.466;8.468;2024-03-17T10:57:48;6.10;;;5.50;;
11111;SDS011;5609;49.466;8.468;2024-03-17T11:00:16;5.77;;;5.27;;
11111;SDS011;5609;49.466;8.468;2024-03-17T11:02:44;5.43;;;4.93;;
11111;SDS011;5609;49.466;8.468;2024-03-17T11:05:14;6.60;;;5.50;;
11111;SDS011;5609;49.466;8.468;2024-03-17T11:07:41;6.03;;;5.47;;
11111;SDS011;5609;49.466;8.468;2024-03-17T11:10:11;5.90;;;5.20;;
11111;SDS011;5609;49.466;8.468;2024-03-17T11:12:43;6.23;;;5.33;;
11111;SDS011;5609;49.466;8.468;2024-03-17T11:20:41;5.63;;;5.03;;
11111;SDS011;5609;49.466;8.468;2024-03-17T11:23:08;5.60;;;4.93;;
11111;SDS011;5609;49.466;8.468;2024-03-17T11:25:38;5.87;;;5.33;;
11111;SDS011;5609;49.466;8.468;2024-03-17T11:28:07;6.10;;;5.50;;
11111;SDS011;5609;49.466;8.468;2024-03-17T11:30:41;6.37;;;5.47;;
11111;SDS011;5609;49.466;8.468;2024-03-17T11:35:51;5.63;;;5.13;;
11111;SDS011;5609;49.466;8.468;2024-03-17T11:43:42;5.93;;;5.20;;
11111;SDS011;5609;49.466;8.468;2024-03-17T11:46:09;6.00;;;5.10;;
11111;SDS011;5609;49.466;8.468;2024-03-17T11:48:37;5.63;;;5.13;;
11111;SDS011;5609;49.466;8.468;2024-03-17T11:51:03;5.37;;;4.87;;
11111;SDS011;5609;49.466;8.468;2024-03-17T11:53:30;6.00;;;4.77;;
11111;SDS011;5609;49.466;8.468;2024-03-17T11:55:58;6.23;;;5.23;;
11111;SDS011;5609;49.466;8.468;2024-03-17T11:58:28;5.80;;;4.70;;
11111;SDS011;5609;49.466;8.468;2024-03-17T12:00:56;4.83;;;4.33;;
11111;SDS011;5609;49.466;8.468;2024-03-17T12:03:23;5.07;;;4.57;;
11111;SDS011;5609;49.466;8.468;2024-03-17T12:05:49;5.37;;;4.87;;
11111;SDS011;5609;49.466;8.468;2024-03-17T12:08:18;5.30;;;4.80;;
11111;SDS011;5609;49.466;8.468;2024-03-17T12:10:46;5.13;;;4.73;;
11111;SDS011;5609;49.466;8.468;2024-03-17T12:13:13;5.30;;;4.57;;
11111;SDS011;5609;49.466;8.468;2024-03-17T12:15:39;5.50;;;4.93;;
11111;SDS011;5609;49.466;8.468;2024-03-17T12:18:19;5.20;;;4.70;;
11111;SDS011;5609;49.466;8.468;2024-03-17T12:20:47;5.40;;;4.90;;
11111;SDS011;5609;49.466;8.468;2024-03-17T12:23:14;5.27;;;4.77;;
11111;SDS011;5609;49.466;8.468;2024-03-17T12:25:47;5.13;;;4.43;;
11111;SDS011;5609;49.466;8.468;2024-03-17T12:28:15;5.20;;;4.70;;
11111;SDS011;5609;49.466;8.468;2024-03-17T12:30:42;5.20;;;4.70;;
11111;SDS011;5609;49.466;8.468;2024-03-17T12:33:12;7.13;;;4.50;;
11111;SDS011;5609;49.466;8.468;2024-03-17T12:35:40;4.67;;;4.27;;
11111;SDS011;5609;49.466;8.468;2024-03-17T12:38:19;5.00;;;4.23;;
11111;SDS011;5609;49.466;8.468;2024-03-17T12:40:46;4.63;;;4.10;;
11111;SDS011;5609;49.466;8.468;2024-03-17T12:43:13;4.77;;;4.37;;
11111;SDS011;5609;49.466;8.468;2024-03-17T12:45:39;5.23;;;4.60;;
11111;SDS011;5609;49.466;8.468;2024-03-17T12:48:12;5.30;;;4.77;;
11111;SDS011;5609;49.466;8.468;2024-03-17T12:50:45;5.20;;;4.70;;
11111;SDS011;5609;49.466;8.468;2024-03-17T12:53:15;5.77;;;4.60;;
11111;SDS011;5609;49.466;8.468;2024-03-17T12:55:41;5.50;;;5.00;;
11111;SDS011;5609;49.466;8.468;2024-03-17T12:58:26;5.63;;;4.60;;
11111;SDS011;5609;49.466;8.468;2024-03-17T13:01:11;4.80;;;4.40;;
11111;SDS011;5609;49.466;8.468;2024-03-17T13:03:39;6.13;;;4.77;;
11111;SDS011;5609;49.466;8.468;2024-03-17T13:06:20;4.90;;;4.20;;
11111;SDS011;5609;49.466;8.468;2024-03-17T13:08:50;4.73;;;4.33;;
11111;SDS011;5609;49.466;8.468;2024-03-17T13:11:17;4.97;;;4.47;;
11111;SDS011;5609;49.466;8.468;2024-03-17T13:13:44;5.30;;;4.67;;
11111;SDS011;5609;49.466;8.468;2024-03-17T13:16:12;4.93;;;4.33;;
11111;SDS011;5609;49.466;8.468;2024-03-17T13:18:39;5.00;;;4.50;;
11111;SDS011;5609;49.466;8.468;2024-03-17T13:21:06;5.70;;;5.10;;
11111;SDS011;5609;49.466;8.468;2024-03-17T13:23:35;5.03;;;4.60;;
11111;SDS011;5609;49.466;8.468;2024-03-17T13:26:02;5.03;;;4.50;;
11111;SDS011;5609;49.466;8.468;2024-03-17T13:28:29;5.67;;;4.60;;
11111;SDS011;5609;49.466;8.468;2024-03-17T13:30:56;4.80;;;4.30;;
11111;SDS011;5609;49.466;8.468;2024-03-17T13:33:23;5.43;;;4.80;;
11111;SDS011;5609;49.466;8.468;2024-03-17T13:35:50;4.70;;;4.30;;
11111;SDS011;5609;49.466;8.468;2024-03-17T13:38:18;6.13;;;4.33;;
11111;SDS011;5609;49.466;8.468;2024-03-17T13:40:46;5.00;;;4.50;;
11111;SDS011;5609;49.466;8.468;2024-03-17T13:43:13;4.70;;;4.20;;
11111;SDS011;5609;49.466;8.468;2024-03-17T13:45:42;4.57;;;4.17;;
11111;SDS011;5609;49.466;8.468;2024-03-17T13:48:09;5.63;;;4.83;;
11111;SDS011;5609;49.466;8.468;2024-03-17T13:50:37;4.70;;;4.20;;
11111;SDS011;5609;49.466;8.468;2024-03-17T13:53:07;5.53;;;4.27;;
11111;SDS011;5609;49.466;8.468;2024-03-17T13:55:34;5.97;;;4.90;;
11111;SDS011;5609;49.466;8.468;2024-03-17T13:58:03;4.67;;;4.27;;
11111;SDS011;5609;49.466;8.468;2024-03-17T14:00:30;4.87;;;4.33;;
11111;SDS011;5609;49.466;8.468;2024-03-17T14:03:00;5.03;;;4.13;;
11111;SDS011;5609;49.466;8.468;2024-03-17T14:05:28;4.20;;;3.80;;
11111;SDS011;5609;49.466;8.468;2024-03-17T14:07:57;4.60;;;4.10;;
11111;SDS011;5609;49.466;8.468;2024-03-17T14:10:25;5.20;;;4.70;;
11111;SDS011;5609;49.466;8.468;2024-03-17T14:12:54;4.73;;;4.33;;
11111;SDS011;5609;49.466;8.468;2024-03-17T14:15:23;5.37;;;4.23;;
11111;SDS011;5609;49.466;8.468;2024-03-17T14:17:50;4.70;;;4.03;;
11111;SDS011;5609;49.466;8.468;2024-03-17T14:20:18;4.50;;;4.10;;
11111;SDS011;5609;49.466;8.468;2024-03-17T14:22:46;5.30;;;3.83;;
11111;SDS011;5609;49.466;8.468;2024-03-17T14:25:18;4.73;;;4.20;;
11111;SDS011;5609;49.466;8.468;2024-03-17T14:27:46;4.33;;;3.87;;
11111;SDS011;5609;49.466;8.468;2024-03-17T14:30:14;4.40;;;3.70;;
11111;SDS011;5609;49.466;8.468;2024-03-17T14:32:43;4.83;;;4.30;;
11111;SDS011;5609;49.466;8.468;2024-03-17T14:35:11;4.40;;;3.47;;
11111;SDS011;5609;49.466;8.468;2024-03-17T14:37:40;4.77;;;4.13;;
11111;SDS011;5609;49.466;8.468;2024-03-17T14:40:08;4.07;;;3.40;;
11111;SDS011;5609;49.466;8.468;2024-03-17T14:42:41;4.67;;;4.27;;
11111;SDS011;5609;49.466;8.468;2024-03-17T14:45:10;4.43;;;4.03;;
11111;SDS011;5609;49.466;8.468;2024-03-17T14:47:36;4.57;;;3.47;;
11111;SDS011;5609;49.466;8.468;2024-03-17T14:50:07;4.13;;;3.60;;
11111;SDS011;5609;49.466;8.468;2024-03-17T14:52:36;4.40;;;4.00;;
11111;SDS011;5609;49.466;8.468;2024-03-17T14:55:04;4.20;;;3.80;;
11111;SDS011;5609;49.466;8.468;2024-03-17T14:57:32;3.53;;;3.23;;
11111;SDS011;5609;49.466;8.468;2024-03-17T14:59:59;3.67;;;3.37;;
11111;SDS011;5609;49.466;8.468;2024-03-17T15:02:28;3.30;;;3.00;;
11111;SDS011;5609;49.466;8.468;2024-03-17T15:04:55;3.87;;;3.57;;
11111;SDS011;5609;49.466;8.468;2024-03-17T15:07:23;4.87;;;3.40;;
11111;SDS011;5609;49.466;8.468;2024-03-17T15:09:51;4.03;;;3.50;;
11111;SDS011;5609;49.466;8.468;2024-03-17T15:12:20;5.73;;;3.20;;
11111;SDS011;5609;49.466;8.468;2024-03-17T15:14:48;4.20;;;3.40;;
11111;SDS011;5609;49.466;8.468;2024-03-17T15:17:15;3.97;;;3.20;;
11111;SDS011;5609;49.466;8.468;2024-03-17T15:19:46;3.87;;;3.20;;
11111;SDS011;5609;49.466;8.468;2024-03-17T15:22:13;3.40;;;3.10;;